sensor_id;sensor_type;location;lat;lon;timestamp;P1;durP1;ratioP1;P2;durP2;ratioP2
13799;SDS011;6971;50.028;9.258;2023-05-10T00:02:59;6.33;;;5.73;;
13799;SDS011;6971;50.028;9.258;2023-05-10T00:08:00;5.50;;;5.00;;
13799;SDS011;6971;50.028;9.258;2023-05-10T00:13:00;5.30;;;4.80;;
13799;SDS011;6971;50.028;9.258;2023-05-10T00:18:00;4.27;;;3.97;;
13799;SDS011;6971;50.028;9.258;2023-05-10T00:23:01;4.63;;;4.23;;
13799;SDS011;6971;50.028;9.258;2023-05-10T00:28:01;2.70;;;1.83;;
13799;SDS011;6971;50.028;9.258;2023-05-10T00:33:01;1.57;;;1.23;;
13799;SDS011;6971;50.028;9.258;2023-05-10T00:38:02;2.27;;;1.10;;
13799;SDS011;6971;50.028;9.258;2023-05-10T00:43:03;2.60;;;1.07;;
13799;SDS011;6971;50.028;9.258;2023-05-10T00:48:03;1.30;;;1.07;;
13799;SDS011;6971;50.028;9.258;2023-05-10T00:53:04;1.67;;;1.13;;
13799;SDS011;6971;50.028;9.258;2023-05-10T00:58:04;6.83;;;1.30;;
13799;SDS011;6971;50.028;9.258;2023-05-10T01:03:05;1.67;;;1.57;;
13799;SDS011;6971;50.028;9.258;2023-05-10T01:08:05;1.57;;;1.30;;
13799;SDS011;6971;50.028;9.258;2023-05-10T01:13:06;1.20;;;1.10;;
13799;SDS011;6971;50.028;9.258;2023-05-10T01:18:07;1.87;;;1.13;;
13799;SDS011;6971;50.028;9.258;2023-05-10T01:23:18;1.50;;;1.40;;
13799;SDS011;6971;50.028;9.258;2023-05-10T01:33:59;1.77;;;1.30;;
13799;SDS011;6971;50.028;9.258;2023-05-10T01:39:17;3.17;;;1.77;;
13799;SDS011;6971;50.028;9.258;2023-05-10T01:44:29;2.83;;;1.53;;
13799;SDS011;6971;50.028;9.258;2023-05-10T01:49:37;3.97;;;1.33;;
13799;SDS011;6971;50.028;9.258;2023-05-10T01:55:06;1.83;;;1.67;;
13799;SDS011;6971;50.028;9.258;2023-05-10T02:00:06;1.83;;;1.73;;
13799;SDS011;6971;50.028;9.258;2023-05-10T02:05:08;1.60;;;1.50;;
13799;SDS011;6971;50.028;9.258;2023-05-10T02:10:11;1.40;;;1.30;;
13799;SDS011;6971;50.028;9.258;2023-05-10T02:15:15;3.83;;;1.50;;
13799;SDS011;6971;50.028;9.258;2023-05-10T02:20:19;5.07;;;1.70;;
13799;SDS011;6971;50.028;9.258;2023-05-10T02:25:21;2.13;;;1.63;;
13799;SDS011;6971;50.028;9.258;2023-05-10T02:30:23;2.33;;;2.03;;
13799;SDS011;6971;50.028;9.258;2023-05-10T02:35:25;3.00;;;1.93;;
13799;SDS011;6971;50.028;9.258;2023-05-10T02:40:26;1.90;;;1.80;;
13799;SDS011;6971;50.028;9.258;2023-05-10T02:45:29;2.90;;;1.63;;
13799;SDS011;6971;50.028;9.258;2023-05-10T02:50:31;1.73;;;1.63;;
13799;SDS011;6971;50.028;9.258;2023-05-10T02:55:35;7.07;;;2.40;;
13799;SDS011;6971;50.028;9.258;2023-05-10T03:00:37;3.13;;;1.80;;
13799;SDS011;6971;50.028;9.258;2023-05-10T03:05:38;2.00;;;1.90;;
13799;SDS011;6971;50.028;9.258;2023-05-10T03:10:41;2.17;;;1.97;;
13799;SDS011;6971;50.028;9.258;2023-05-10T03:16:06;2.00;;;1.90;;
13799;SDS011;6971;50.028;9.258;2023-05-10T03:21:10;2.80;;;1.80;;
13799;SDS011;6971;50.028;9.258;2023-05-10T03:26:16;2.93;;;2.67;;
13799;SDS011;6971;50.028;9.258;2023-05-10T03:31:20;3.60;;;3.30;;
13799;SDS011;6971;50.028;9.258;2023-05-10T03:36:20;3.37;;;3.10;;
13799;SDS011;6971;50.028;9.258;2023-05-10T03:41:21;3.30;;;3.10;;
13799;SDS011;6971;50.028;9.258;2023-05-10T03:46:21;3.63;;;3.33;;
13799;SDS011;6971;50.028;9.258;2023-05-10T03:51:22;3.93;;;3.53;;
13799;SDS011;6971;50.028;9.258;2023-05-10T03:56:22;5.33;;;3.90;;
13799;SDS011;6971;50.028;9.258;2023-05-10T04:01:22;4.17;;;3.50;;
13799;SDS011;6971;50.028;9.258;2023-05-10T04:06:23;4.17;;;3.40;;
13799;SDS011;6971;50.028;9.258;2023-05-10T04:11:23;5.10;;;3.30;;
13799;SDS011;6971;50.028;9.258;2023-05-10T04:16:24;4.73;;;4.43;;
13799;SDS011;6971;50.028;9.258;2023-05-10T04:21:25;4.47;;;4.17;;
13799;SDS011;6971;50.028;9.258;2023-05-10T04:26:25;6.50;;;4.90;;
13799;SDS011;6971;50.028;9.258;2023-05-10T04:31:25;4.90;;;4.60;;
13799;SDS011;6971;50.028;9.258;2023-05-10T04:36:27;4.80;;;4.33;;
13799;SDS011;6971;50.028;9.258;2023-05-10T04:41:28;4.87;;;3.70;;
13799;SDS011;6971;50.028;9.258;2023-05-10T04:46:29;4.60;;;3.87;;
13799;SDS011;6971;50.028;9.258;2023-05-10T04:51:29;3.97;;;3.40;;
13799;SDS011;6971;50.028;9.258;2023-05-10T04:56:30;4.70;;;4.30;;
13799;SDS011;6971;50.028;9.258;2023-05-10T05:01:30;4.33;;;4.03;;
13799;SDS011;6971;50.028;9.258;2023-05-10T05:06:31;3.83;;;3.53;;
13799;SDS011;6971;50.028;9.258;2023-05-10T05:11:31;7.07;;;4.90;;
13799;SDS011;6971;50.028;9.258;2023-05-10T05:16:31;4.23;;;3.90;;
13799;SDS011;6971;50.028;9.258;2023-05-10T05:21:32;4.73;;;4.07;;
13799;SDS011;6971;50.028;9.258;2023-05-10T05:26:32;6.30;;;3.67;;
13799;SDS011;6971;50.028;9.258;2023-05-10T05:31:33;5.23;;;4.20;;
13799;SDS011;6971;50.028;9.258;2023-05-10T05:36:35;5.87;;;4.13;;
13799;SDS011;6971;50.028;9.258;2023-05-10T05:41:38;5.00;;;4.60;;
13799;SDS011;6971;50.028;9.258;2023-05-10T05:46:39;4.97;;;4.53;;
13799;SDS011;6971;50.028;9.258;2023-05-10T05:51:39;4.83;;;4.27;;
13799;SDS011;6971;50.028;9.258;2023-05-10T05:56:40;6.13;;;4.60;;
13799;SDS011;6971;50.028;9.258;2023-05-10T06:01:40;7.20;;;5.17;;
13799;SDS011;6971;50.028;9.258;2023-05-10T06:06:40;6.90;;;6.20;;
13799;SDS011;6971;50.028;9.258;2023-05-10T06:11:42;7.27;;;6.53;;
13799;SDS011;6971;50.028;9.258;2023-05-10T06:16:42;9.20;;;7.20;;
13799;SDS011;6971;50.028;9.258;2023-05-10T06:21:43;7.27;;;5.93;;
13799;SDS011;6971;50.028;9.258;2023-05-10T06:26:43;8.70;;;5.60;;
13799;SDS011;6971;50.028;9.258;2023-05-10T06:31:43;9.50;;;6.13;;
13799;SDS011;6971;50.028;9.258;2023-05-10T06:36:44;6.53;;;5.83;;
13799;SDS011;6971;50.028;9.258;2023-05-10T06:41:44;9.70;;;6.73;;
13799;SDS011;6971;50.028;9.258;2023-05-10T06:46:44;8.33;;;6.33;;
13799;SDS011;6971;50.028;9.258;2023-05-10T06:51:45;7.10;;;6.40;;
13799;SDS011;6971;50.028;9.258;2023-05-10T06:56:45;12.97;;;6.87;;
13799;SDS011;6971;50.028;9.258;2023-05-10T07:01:45;7.40;;;6.30;;
13799;SDS011;6971;50.028;9.258;2023-05-10T07:06:46;7.43;;;6.43;;
13799;SDS011;6971;50.028;9.258;2023-05-10T07:11:46;7.10;;;6.33;;
13799;SDS011;6971;50.028;9.258;2023-05-10T07:16:46;8.93;;;6.40;;
13799;SDS011;6971;50.028;9.258;2023-05-10T07:21:47;8.43;;;7.13;;
13799;SDS011;6971;50.028;9.258;2023-05-10T07:26:47;6.87;;;5.80;;
13799;SDS011;6971;50.028;9.258;2023-05-10T07:31:47;6.00;;;5.40;;
13799;SDS011;6971;50.028;9.258;2023-05-10T07:36:48;6.87;;;5.30;;
13799;SDS011;6971;50.028;9.258;2023-05-10T07:41:48;7.67;;;5.00;;
13799;SDS011;6971;50.028;9.258;2023-05-10T07:46:48;7.37;;;5.40;;
13799;SDS011;6971;50.028;9.258;2023-05-10T07:51:49;8.63;;;4.70;;
13799;SDS011;6971;50.028;9.258;2023-05-10T07:56:50;8.93;;;4.83;;
13799;SDS011;6971;50.028;9.258;2023-05-10T08:01:50;7.53;;;4.63;;
13799;SDS011;6971;50.028;9.258;2023-05-10T08:06:51;7.90;;;3.80;;
13799;SDS011;6971;50.028;9.258;2023-05-10T08:11:51;6.47;;;4.30;;
13799;SDS011;6971;50.028;9.258;2023-05-10T08:16:55;7.23;;;4.23;;
13799;SDS011;6971;50.028;9.258;2023-05-10T08:21:55;7.00;;;4.37;;
13799;SDS011;6971;50.028;9.258;2023-05-10T08:26:56;7.27;;;4.10;;
13799;SDS011;6971;50.028;9.258;2023-05-10T08:31:57;5.97;;;4.10;;
13799;SDS011;6971;50.028;9.258;2023-05-10T08:36:57;7.83;;;4.60;;
13799;SDS011;6971;50.028;9.258;2023-05-10T08:41:58;7.73;;;4.50;;
13799;SDS011;6971;50.028;9.258;2023-05-10T08:47:02;5.33;;;3.87;;
13799;SDS011;6971;50.028;9.258;2023-05-10T08:52:05;4.90;;;4.07;;
13799;SDS011;6971;50.028;9.258;2023-05-10T08:57:07;6.47;;;4.37;;
13799;SDS011;6971;50.028;9.258;2023-05-10T09:02:07;5.30;;;4.47;;
13799;SDS011;6971;50.028;9.258;2023-05-10T09:07:11;4.73;;;4.27;;
13799;SDS011;6971;50.028;9.258;2023-05-10T09:12:12;5.80;;;4.10;;
13799;SDS011;6971;50.028;9.258;2023-05-10T09:17:15;6.30;;;4.33;;
13799;SDS011;6971;50.028;9.258;2023-05-10T09:22:16;10.70;;;4.47;;
13799;SDS011;6971;50.028;9.258;2023-05-10T09:27:17;6.97;;;4.03;;
13799;SDS011;6971;50.028;9.258;2023-05-10T09:32:39;4.87;;;3.80;;
13799;SDS011;6971;50.028;9.258;2023-05-10T09:37:41;5.73;;;3.53;;
13799;SDS011;6971;50.028;9.258;2023-05-10T09:42:50;6.20;;;3.60;;
13799;SDS011;6971;50.028;9.258;2023-05-10T09:47:52;4.43;;;3.13;;
13799;SDS011;6971;50.028;9.258;2023-05-10T09:52:56;3.77;;;3.30;;
13799;SDS011;6971;50.028;9.258;2023-05-10T09:57:59;5.70;;;3.00;;
13799;SDS011;6971;50.028;9.258;2023-05-10T10:03:01;3.97;;;2.87;;
13799;SDS011;6971;50.028;9.258;2023-05-10T10:08:05;6.07;;;4.00;;
13799;SDS011;6971;50.028;9.258;2023-05-10T10:13:06;3.17;;;2.87;;
13799;SDS011;6971;50.028;9.258;2023-05-10T10:18:07;5.97;;;2.50;;
13799;SDS011;6971;50.028;9.258;2023-05-10T10:23:08;9.30;;;7.40;;
13799;SDS011;6971;50.028;9.258;2023-05-10T10:28:16;2.70;;;2.50;;
13799;SDS011;6971;50.028;9.258;2023-05-10T10:38:57;2.60;;;2.40;;
13799;SDS011;6971;50.028;9.258;2023-05-10T10:49:25;2.23;;;2.03;;
13799;SDS011;6971;50.028;9.258;2023-05-10T10:54:29;2.50;;;2.30;;
13799;SDS011;6971;50.028;9.258;2023-05-10T10:59:29;4.00;;;2.40;;
13799;SDS011;6971;50.028;9.258;2023-05-10T11:04:31;5.50;;;2.57;;
13799;SDS011;6971;50.028;9.258;2023-05-10T11:09:42;1.87;;;1.67;;
13799;SDS011;6971;50.028;9.258;2023-05-10T11:14:42;24.63;;;13.30;;
13799;SDS011;6971;50.028;9.258;2023-05-10T11:20:00;1.33;;;1.23;;
13799;SDS011;6971;50.028;9.258;2023-05-10T11:25:10;2.03;;;1.60;;
13799;SDS011;6971;50.028;9.258;2023-05-10T11:30:11;1.73;;;1.30;;
13799;SDS011;6971;50.028;9.258;2023-05-10T11:35:12;1.57;;;1.10;;
13799;SDS011;6971;50.028;9.258;2023-05-10T11:40:12;1.13;;;0.90;;
13799;SDS011;6971;50.028;9.258;2023-05-10T11:45:13;2.07;;;1.30;;
13799;SDS011;6971;50.028;9.258;2023-05-10T11:50:13;1.20;;;1.10;;
13799;SDS011;6971;50.028;9.258;2023-05-10T11:55:14;1.57;;;1.47;;
13799;SDS011;6971;50.028;9.258;2023-05-10T12:00:14;3.70;;;1.50;;
13799;SDS011;6971;50.028;9.258;2023-05-10T12:05:15;2.00;;;1.70;;
13799;SDS011;6971;50.028;9.258;2023-05-10T12:10:17;2.30;;;1.90;;
13799;SDS011;6971;50.028;9.258;2023-05-10T12:15:25;1.93;;;1.70;;
13799;SDS011;6971;50.028;9.258;2023-05-10T12:20:27;1.90;;;1.47;;
13799;SDS011;6971;50.028;9.258;2023-05-10T12:25:31;2.47;;;1.77;;
13799;SDS011;6971;50.028;9.258;2023-05-10T12:30:36;1.80;;;1.70;;
13799;SDS011;6971;50.028;9.258;2023-05-10T12:35:46;2.53;;;1.80;;
13799;SDS011;6971;50.028;9.258;2023-05-10T12:40:54;1.90;;;1.80;;
13799;SDS011;6971;50.028;9.258;2023-05-10T12:45:54;1.53;;;1.43;;
13799;SDS011;6971;50.028;9.258;2023-05-10T12:50:55;1.50;;;1.40;;
13799;SDS011;6971;50.028;9.258;2023-05-10T12:55:55;1.50;;;1.40;;
13799;SDS011;6971;50.028;9.258;2023-05-10T13:00:58;2.00;;;1.57;;
13799;SDS011;6971;50.028;9.258;2023-05-10T13:06:00;2.90;;;1.80;;
13799;SDS011;6971;50.028;9.258;2023-05-10T13:11:00;1.70;;;1.60;;
13799;SDS011;6971;50.028;9.258;2023-05-10T13:16:02;2.87;;;1.40;;
13799;SDS011;6971;50.028;9.258;2023-05-10T13:21:03;1.93;;;1.37;;
13799;SDS011;6971;50.028;9.258;2023-05-10T13:26:05;1.53;;;1.33;;
13799;SDS011;6971;50.028;9.258;2023-05-10T13:31:05;2.47;;;2.00;;
13799;SDS011;6971;50.028;9.258;2023-05-10T13:36:06;1.30;;;1.20;;
13799;SDS011;6971;50.028;9.258;2023-05-10T13:41:06;2.40;;;1.70;;
13799;SDS011;6971;50.028;9.258;2023-05-10T13:46:06;1.77;;;1.30;;
13799;SDS011;6971;50.028;9.258;2023-05-10T13:51:07;3.67;;;1.10;;
13799;SDS011;6971;50.028;9.258;2023-05-10T13:56:07;1.30;;;1.10;;
13799;SDS011;6971;50.028;9.258;2023-05-10T14:01:07;2.57;;;1.20;;
13799;SDS011;6971;50.028;9.258;2023-05-10T14:06:08;2.60;;;1.20;;
13799;SDS011;6971;50.028;9.258;2023-05-10T14:11:08;1.67;;;1.30;;
13799;SDS011;6971;50.028;9.258;2023-05-10T14:16:08;3.67;;;1.20;;
13799;SDS011;6971;50.028;9.258;2023-05-10T14:21:09;2.63;;;1.20;;
13799;SDS011;6971;50.028;9.258;2023-05-10T14:26:09;2.43;;;1.60;;
13799;SDS011;6971;50.028;9.258;2023-05-10T14:31:09;2.00;;;1.30;;
13799;SDS011;6971;50.028;9.258;2023-05-10T14:36:10;1.30;;;1.20;;
13799;SDS011;6971;50.028;9.258;2023-05-10T14:41:10;2.40;;;1.60;;
13799;SDS011;6971;50.028;9.258;2023-05-10T14:46:14;2.93;;;1.70;;
13799;SDS011;6971;50.028;9.258;2023-05-10T14:51:14;3.63;;;1.67;;
13799;SDS011;6971;50.028;9.258;2023-05-10T14:56:14;1.27;;;1.17;;
13799;SDS011;6971;50.028;9.258;2023-05-10T15:01:15;4.40;;;1.10;;
13799;SDS011;6971;50.028;9.258;2023-05-10T15:06:15;5.90;;;1.33;;
13799;SDS011;6971;50.028;9.258;2023-05-10T15:11:16;2.17;;;1.20;;
13799;SDS011;6971;50.028;9.258;2023-05-10T15:16:16;1.70;;;1.60;;
13799;SDS011;6971;50.028;9.258;2023-05-10T15:21:17;2.97;;;2.30;;
13799;SDS011;6971;50.028;9.258;2023-05-10T15:26:17;2.23;;;1.30;;
13799;SDS011;6971;50.028;9.258;2023-05-10T15:31:17;1.80;;;1.40;;
13799;SDS011;6971;50.028;9.258;2023-05-10T15:36:18;2.63;;;1.53;;
13799;SDS011;6971;50.028;9.258;2023-05-10T15:41:18;6.57;;;1.93;;
13799;SDS011;6971;50.028;9.258;2023-05-10T15:46:18;2.70;;;1.60;;
13799;SDS011;6971;50.028;9.258;2023-05-10T15:51:19;1.90;;;1.40;;
13799;SDS011;6971;50.028;9.258;2023-05-10T15:56:19;5.30;;;1.60;;
13799;SDS011;6971;50.028;9.258;2023-05-10T16:01:19;2.27;;;1.60;;
13799;SDS011;6971;50.028;9.258;2023-05-10T16:06:20;4.70;;;1.93;;
13799;SDS011;6971;50.028;9.258;2023-05-10T16:11:20;1.93;;;1.50;;
13799;SDS011;6971;50.028;9.258;2023-05-10T16:16:20;2.77;;;1.20;;
13799;SDS011;6971;50.028;9.258;2023-05-10T16:21:21;5.27;;;2.33;;
13799;SDS011;6971;50.028;9.258;2023-05-10T16:26:21;2.97;;;1.70;;
13799;SDS011;6971;50.028;9.258;2023-05-10T16:31:23;4.10;;;1.40;;
13799;SDS011;6971;50.028;9.258;2023-05-10T16:36:23;5.13;;;1.60;;
13799;SDS011;6971;50.028;9.258;2023-05-10T16:41:24;4.83;;;2.40;;
13799;SDS011;6971;50.028;9.258;2023-05-10T16:46:25;6.53;;;1.87;;
13799;SDS011;6971;50.028;9.258;2023-05-10T16:51:25;5.17;;;1.90;;
13799;SDS011;6971;50.028;9.258;2023-05-10T16:56:26;3.37;;;2.70;;
13799;SDS011;6971;50.028;9.258;2023-05-10T17:01:26;9.10;;;4.65;;
13799;SDS011;6971;50.028;9.258;2023-05-10T17:06:26;5.23;;;2.47;;
13799;SDS011;6971;50.028;9.258;2023-05-10T17:11:27;5.28;;;2.03;;
13799;SDS011;6971;50.028;9.258;2023-05-10T17:16:28;3.97;;;1.90;;
13799;SDS011;6971;50.028;9.258;2023-05-10T17:21:29;6.17;;;5.53;;
13799;SDS011;6971;50.028;9.258;2023-05-10T17:26:31;4.17;;;1.87;;
13799;SDS011;6971;50.028;9.258;2023-05-10T17:31:31;2.37;;;1.70;;
13799;SDS011;6971;50.028;9.258;2023-05-10T17:36:32;6.43;;;1.77;;
13799;SDS011;6971;50.028;9.258;2023-05-10T17:41:32;5.87;;;1.90;;
13799;SDS011;6971;50.028;9.258;2023-05-10T17:46:33;2.13;;;1.80;;
13799;SDS011;6971;50.028;9.258;2023-05-10T17:51:34;5.47;;;2.00;;
13799;SDS011;6971;50.028;9.258;2023-05-10T17:56:34;3.93;;;1.80;;
13799;SDS011;6971;50.028;9.258;2023-05-10T18:01:35;5.30;;;1.90;;
13799;SDS011;6971;50.028;9.258;2023-05-10T18:06:35;4.17;;;1.80;;
13799;SDS011;6971;50.028;9.258;2023-05-10T18:11:36;5.83;;;1.77;;
13799;SDS011;6971;50.028;9.258;2023-05-10T18:16:38;3.67;;;1.80;;
13799;SDS011;6971;50.028;9.258;2023-05-10T18:21:38;4.07;;;1.63;;
13799;SDS011;6971;50.028;9.258;2023-05-10T18:26:38;4.10;;;1.80;;
13799;SDS011;6971;50.028;9.258;2023-05-10T18:31:39;4.33;;;1.87;;
13799;SDS011;6971;50.028;9.258;2023-05-10T18:36:39;3.10;;;2.03;;
13799;SDS011;6971;50.028;9.258;2023-05-10T18:41:42;5.67;;;2.30;;
13799;SDS011;6971;50.028;9.258;2023-05-10T18:46:44;10.93;;;2.80;;
13799;SDS011;6971;50.028;9.258;2023-05-10T18:51:45;5.93;;;2.37;;
13799;SDS011;6971;50.028;9.258;2023-05-10T18:56:46;7.13;;;2.60;;
13799;SDS011;6971;50.028;9.258;2023-05-10T19:01:48;5.23;;;2.23;;
13799;SDS011;6971;50.028;9.258;2023-05-10T19:06:49;4.73;;;2.80;;
13799;SDS011;6971;50.028;9.258;2023-05-10T19:11:50;4.00;;;2.90;;
13799;SDS011;6971;50.028;9.258;2023-05-10T19:16:50;2.70;;;2.50;;
13799;SDS011;6971;50.028;9.258;2023-05-10T19:21:50;6.67;;;2.73;;
13799;SDS011;6971;50.028;9.258;2023-05-10T19:26:51;7.93;;;3.20;;
13799;SDS011;6971;50.028;9.258;2023-05-10T19:31:51;5.90;;;3.07;;
13799;SDS011;6971;50.028;9.258;2023-05-10T19:36:52;5.80;;;3.07;;
13799;SDS011;6971;50.028;9.258;2023-05-10T19:41:53;7.97;;;4.77;;
13799;SDS011;6971;50.028;9.258;2023-05-10T19:46:53;8.03;;;2.80;;
13799;SDS011;6971;50.028;9.258;2023-05-10T19:51:53;8.70;;;3.53;;
13799;SDS011;6971;50.028;9.258;2023-05-10T19:56:54;5.73;;;3.47;;
13799;SDS011;6971;50.028;9.258;2023-05-10T20:01:54;7.87;;;3.87;;
13799;SDS011;6971;50.028;9.258;2023-05-10T20:06:54;3.57;;;3.27;;
13799;SDS011;6971;50.028;9.258;2023-05-10T20:11:55;6.53;;;3.60;;
13799;SDS011;6971;50.028;9.258;2023-05-10T20:16:55;3.57;;;3.23;;
13799;SDS011;6971;50.028;9.258;2023-05-10T20:21:55;6.97;;;3.67;;
13799;SDS011;6971;50.028;9.258;2023-05-10T20:26:57;9.03;;;3.80;;
13799;SDS011;6971;50.028;9.258;2023-05-10T20:31:57;4.47;;;3.77;;
13799;SDS011;6971;50.028;9.258;2023-05-10T20:36:58;8.00;;;5.10;;
13799;SDS011;6971;50.028;9.258;2023-05-10T20:41:58;7.43;;;4.17;;
13799;SDS011;6971;50.028;9.258;2023-05-10T20:46:59;4.60;;;3.53;;
13799;SDS011;6971;50.028;9.258;2023-05-10T20:52:00;6.60;;;3.73;;
13799;SDS011;6971;50.028;9.258;2023-05-10T20:57:00;4.90;;;4.25;;
13799;SDS011;6971;50.028;9.258;2023-05-10T21:02:01;5.90;;;4.33;;
13799;SDS011;6971;50.028;9.258;2023-05-10T21:07:01;5.07;;;4.20;;
13799;SDS011;6971;50.028;9.258;2023-05-10T21:12:01;4.77;;;4.00;;
13799;SDS011;6971;50.028;9.258;2023-05-10T21:17:02;10.70;;;4.30;;
13799;SDS011;6971;50.028;9.258;2023-05-10T21:22:03;6.33;;;3.80;;
13799;SDS011;6971;50.028;9.258;2023-05-10T21:27:03;5.93;;;4.03;;
13799;SDS011;6971;50.028;9.258;2023-05-10T21:32:04;4.67;;;4.20;;
13799;SDS011;6971;50.028;9.258;2023-05-10T21:37:04;6.20;;;4.67;;
13799;SDS011;6971;50.028;9.258;2023-05-10T21:42:05;4.70;;;4.10;;
13799;SDS011;6971;50.028;9.258;2023-05-10T21:47:05;5.00;;;4.57;;
13799;SDS011;6971;50.028;9.258;2023-05-10T21:52:05;5.07;;;4.57;;
13799;SDS011;6971;50.028;9.258;2023-05-10T21:57:06;5.43;;;3.90;;
13799;SDS011;6971;50.028;9.258;2023-05-10T22:02:06;8.67;;;4.60;;
13799;SDS011;6971;50.028;9.258;2023-05-10T22:07:07;8.97;;;4.80;;
13799;SDS011;6971;50.028;9.258;2023-05-10T22:12:07;7.83;;;4.47;;
13799;SDS011;6971;50.028;9.258;2023-05-10T22:17:08;6.23;;;4.60;;
13799;SDS011;6971;50.028;9.258;2023-05-10T22:22:08;5.53;;;4.83;;
13799;SDS011;6971;50.028;9.258;2023-05-10T22:27:10;6.10;;;4.67;;
13799;SDS011;6971;50.028;9.258;2023-05-10T22:32:10;8.40;;;4.77;;
13799;SDS011;6971;50.028;9.258;2023-05-10T22:37:10;7.30;;;4.97;;
13799;SDS011;6971;50.028;9.258;2023-05-10T22:42:13;9.83;;;4.80;;
13799;SDS011;6971;50.028;9.258;2023-05-10T22:47:14;7.67;;;5.30;;
13799;SDS011;6971;50.028;9.258;2023-05-10T22:52:15;9.27;;;4.87;;
13799;SDS011;6971;50.028;9.258;2023-05-10T22:57:15;6.07;;;4.43;;
13799;SDS011;6971;50.028;9.258;2023-05-10T23:02:16;9.07;;;4.60;;
13799;SDS011;6971;50.028;9.258;2023-05-10T23:07:16;8.67;;;4.20;;
13799;SDS011;6971;50.028;9.258;2023-05-10T23:12:17;7.90;;;4.50;;
13799;SDS011;6971;50.028;9.258;2023-05-10T23:17:17;9.90;;;5.00;;
13799;SDS011;6971;50.028;9.258;2023-05-10T23:22:18;5.70;;;4.90;;
13799;SDS011;6971;50.028;9.258;2023-05-10T23:27:18;7.63;;;5.03;;
13799;SDS011;6971;50.028;9.258;2023-05-10T23:32:18;8.07;;;4.77;;
13799;SDS011;6971;50.028;9.258;2023-05-10T23:37:19;5.93;;;4.67;;
13799;SDS011;6971;50.028;9.258;2023-05-10T23:42:20;7.00;;;4.47;;
13799;SDS011;6971;50.028;9.258;2023-05-10T23:47:20;8.13;;;4.87;;
13799;SDS011;6971;50.028;9.258;2023-05-10T23:52:20;5.80;;;4.77;;
13799;SDS011;6971;50.028;9.258;2023-05-10T23:57:23;6.90;;;4.27;;
